sensor_id;sensor_type;location;lat;lon;timestamp;pressure;altitude;pressure_sealevel;temperature;humidity
50356;BME280;36264;51.296;-0.602;2023-02-20T00:00:49;102492.66;;;8.82;100.00
50356;BME280;36264;51.296;-0.602;2023-02-20T00:03:15;102477.09;;;8.77;100.00
50356;BME280;36264;51.296;-0.602;2023-02-20T00:05:41;102465.84;;;8.80;100.00
50356;BME280;36264;51.296;-0.602;2023-02-20T00:08:06;102477.06;;;8.74;100.00
50356;BME280;36264;51.296;-0.602;2023-02-20T00:10:32;102475.31;;;8.70;100.00
50356;BME280;36264;51.296;-0.602;2023-02-20T00:12:57;102482.25;;;8.71;100.00
50356;BME280;36264;51.296;-0.602;2023-02-20T00:15:22;102473.59;;;8.70;100.00
50356;BME280;36264;51.296;-0.602;2023-02-20T00:17:48;102474.50;;;8.79;100.00
50356;BME280;36264;51.296;-0.602;2023-02-20T00:20:16;102470.19;;;8.82;100.00
50356;BME280;36264;51.296;-0.602;2023-02-20T00:22:42;102458.06;;;8.78;100.00
50356;BME280;36264;51.296;-0.602;2023-02-20T00:25:07;102458.09;;;8.84;100.00
50356;BME280;36264;51.296;-0.602;2023-02-20T00:27:32;102454.69;;;8.92;100.00
50356;BME280;36264;51.296;-0.602;2023-02-20T00:29:58;102455.53;;;8.91;100.00
50356;BME280;36264;51.296;-0.602;2023-02-20T00:32:23;102452.94;;;8.89;100.00
50356;BME280;36264;51.296;-0.602;2023-02-20T00:34:48;102455.53;;;8.94;100.00
50356;BME280;36264;51.296;-0.602;2023-02-20T00:37:14;102448.63;;;8.96;100.00
50356;BME280;36264;51.296;-0.602;2023-02-20T00:39:39;102439.13;;;8.90;100.00
50356;BME280;36264;51.296;-0.602;2023-02-20T00:42:05;102444.31;;;8.87;100.00
50356;BME280;36264;51.296;-0.602;2023-02-20T00:44:30;102437.41;;;8.94;100.00
50356;BME280;36264;51.296;-0.602;2023-02-20T00:46:55;102446.06;;;9.00;100.00
50356;BME280;36264;51.296;-0.602;2023-02-20T00:49:21;102441.75;;;8.99;100.00
50356;BME280;36264;51.296;-0.602;2023-02-20T00:51:47;102443.47;;;9.02;100.00
50356;BME280;36264;51.296;-0.602;2023-02-20T00:54:12;102440.03;;;9.03;100.00
50356;BME280;36264;51.296;-0.602;2023-02-20T00:56:38;102433.97;;;9.01;100.00
50356;BME280;36264;51.296;-0.602;2023-02-20T00:59:03;102426.22;;;9.12;100.00
50356;BME280;36264;51.296;-0.602;2023-02-20T01:01:28;102435.75;;;9.22;100.00
50356;BME280;36264;51.296;-0.602;2023-02-20T01:03:54;102432.31;;;9.21;100.00
50356;BME280;36264;51.296;-0.602;2023-02-20T01:06:19;102425.34;;;9.14;100.00
50356;BME280;36264;51.296;-0.602;2023-02-20T01:08:44;102415.84;;;9.16;100.00
50356;BME280;36264;51.296;-0.602;2023-02-20T01:11:10;102416.72;;;9.24;100.00
50356;BME280;36264;51.296;-0.602;2023-02-20T01:13:35;102406.38;;;9.34;100.00
50356;BME280;36264;51.296;-0.602;2023-02-20T01:16:01;102402.91;;;9.32;100.00
50356;BME280;36264;51.296;-0.602;2023-02-20T01:18:27;102398.56;;;9.28;100.00
50356;BME280;36264;51.296;-0.602;2023-02-20T01:20:52;102396.84;;;9.23;100.00
50356;BME280;36264;51.296;-0.602;2023-02-20T01:23:17;102406.34;;;9.31;100.00
50356;BME280;36264;51.296;-0.602;2023-02-20T01:25:43;102401.19;;;9.34;100.00
50356;BME280;36264;51.296;-0.602;2023-02-20T01:28:09;102401.19;;;9.38;100.00
50356;BME280;36264;51.296;-0.602;2023-02-20T01:30:34;102394.25;;;9.40;100.00
50356;BME280;36264;51.296;-0.602;2023-02-20T01:33:00;102398.59;;;9.46;100.00
50356;BME280;36264;51.296;-0.602;2023-02-20T01:35:25;102390.81;;;9.45;100.00
50356;BME280;36264;51.296;-0.602;2023-02-20T01:37:55;102391.66;;;9.43;100.00
50356;BME280;36264;51.296;-0.602;2023-02-20T01:40:21;102392.56;;;9.44;100.00
50356;BME280;36264;51.296;-0.602;2023-02-20T01:42:47;102384.78;;;9.41;100.00
50356;BME280;36264;51.296;-0.602;2023-02-20T01:47:52;102377.00;;;9.44;100.00
50356;BME280;36264;51.296;-0.602;2023-02-20T01:50:22;102377.84;;;9.46;100.00
50356;BME280;36264;51.296;-0.602;2023-02-20T01:52:52;102387.38;;;9.39;100.00
50356;BME280;36264;51.296;-0.602;2023-02-20T01:55:29;102379.59;;;9.44;100.00
50356;BME280;36264;51.296;-0.602;2023-02-20T01:57:59;102382.19;;;9.41;100.00
50356;BME280;36264;51.296;-0.602;2023-02-20T02:00:26;102383.88;;;9.47;100.00
50356;BME280;36264;51.296;-0.602;2023-02-20T02:03:06;102376.09;;;9.45;100.00
50356;BME280;36264;51.296;-0.602;2023-02-20T02:05:33;102377.84;;;9.37;100.00
50356;BME280;36264;51.296;-0.602;2023-02-20T02:08:03;102379.56;;;9.32;100.00
50356;BME280;36264;51.296;-0.602;2023-02-20T02:10:43;102387.34;;;9.27;100.00
50356;BME280;36264;51.296;-0.602;2023-02-20T02:13:11;102382.16;;;9.36;100.00
50356;BME280;36264;51.296;-0.602;2023-02-20T02:15:36;102372.66;;;9.43;100.00
50356;BME280;36264;51.296;-0.602;2023-02-20T02:18:47;102370.91;;;9.50;100.00
50356;BME280;36264;51.296;-0.602;2023-02-20T02:24:33;102376.09;;;9.62;100.00
50356;BME280;36264;51.296;-0.602;2023-02-20T02:38:30;102366.63;;;9.58;100.00
50356;BME280;36264;51.296;-0.602;2023-02-20T02:46:26;102372.66;;;9.46;100.00
50356;BME280;36264;51.296;-0.602;2023-02-20T02:49:03;102366.63;;;9.50;100.00
50356;BME280;36264;51.296;-0.602;2023-02-20T02:51:34;102355.34;;;9.56;100.00
50356;BME280;36264;51.296;-0.602;2023-02-20T02:54:27;102355.34;;;9.56;100.00
50356;BME280;36264;51.296;-0.602;2023-02-20T02:57:20;102351.91;;;9.55;100.00
50356;BME280;36264;51.296;-0.602;2023-02-20T02:59:49;102347.56;;;9.60;100.00
50356;BME280;36264;51.296;-0.602;2023-02-20T03:02:17;102351.06;;;9.53;100.00
50356;BME280;36264;51.296;-0.602;2023-02-20T03:04:46;102352.75;;;9.53;100.00
50356;BME280;36264;51.296;-0.602;2023-02-20T03:07:15;102342.38;;;9.54;100.00
50356;BME280;36264;51.296;-0.602;2023-02-20T03:09:45;102344.97;;;9.54;100.00
50356;BME280;36264;51.296;-0.602;2023-02-20T03:12:12;102342.38;;;9.51;100.00
50356;BME280;36264;51.296;-0.602;2023-02-20T03:14:48;102335.50;;;9.49;100.00
50356;BME280;36264;51.296;-0.602;2023-02-20T03:18:06;102350.16;;;9.53;100.00
50356;BME280;36264;51.296;-0.602;2023-02-20T03:20:55;102344.97;;;9.57;100.00
50356;BME280;36264;51.296;-0.602;2023-02-20T03:23:25;102345.81;;;9.59;100.00
50356;BME280;36264;51.296;-0.602;2023-02-20T03:26:00;102345.88;;;9.56;100.00
50356;BME280;36264;51.296;-0.602;2023-02-20T03:28:34;102348.47;;;9.53;100.00
50356;BME280;36264;51.296;-0.602;2023-02-20T03:31:20;102351.03;;;9.59;100.00
50356;BME280;36264;51.296;-0.602;2023-02-20T03:33:59;102350.16;;;9.62;100.00
50356;BME280;36264;51.296;-0.602;2023-02-20T03:36:54;102353.59;;;9.63;100.00
50356;BME280;36264;51.296;-0.602;2023-02-20T03:39:47;102343.22;;;9.63;100.00
50356;BME280;36264;51.296;-0.602;2023-02-20T03:42:36;102332.84;;;9.61;100.00
50356;BME280;36264;51.296;-0.602;2023-02-20T03:45:23;102338.94;;;9.65;100.00
50356;BME280;36264;51.296;-0.602;2023-02-20T03:47:53;102331.16;;;9.61;100.00
50356;BME280;36264;51.296;-0.602;2023-02-20T03:50:21;102340.69;;;9.55;100.00
50356;BME280;36264;51.296;-0.602;2023-02-20T03:52:46;102332.91;;;9.52;100.00
50356;BME280;36264;51.296;-0.602;2023-02-20T03:55:12;102329.41;;;9.48;100.00
50356;BME280;36264;51.296;-0.602;2023-02-20T03:57:41;102335.50;;;9.55;100.00
50356;BME280;36264;51.296;-0.602;2023-02-20T04:00:11;102341.53;;;9.48;100.00
50356;BME280;36264;51.296;-0.602;2023-02-20T04:02:43;102338.09;;;9.52;100.00
50356;BME280;36264;51.296;-0.602;2023-02-20T04:05:31;102333.75;;;9.55;100.00
50356;BME280;36264;51.296;-0.602;2023-02-20T04:08:21;102336.34;;;9.54;100.00
50356;BME280;36264;51.296;-0.602;2023-02-20T04:10:59;102340.69;;;9.56;100.00
50356;BME280;36264;51.296;-0.602;2023-02-20T04:13:25;102344.97;;;9.48;100.00
50356;BME280;36264;51.296;-0.602;2023-02-20T04:15:51;102336.34;;;9.52;100.00
50356;BME280;36264;51.296;-0.602;2023-02-20T04:18:19;102338.94;;;9.54;100.00
50356;BME280;36264;51.296;-0.602;2023-02-20T04:20:47;102342.41;;;9.39;100.00
50356;BME280;36264;51.296;-0.602;2023-02-20T04:23:20;102341.53;;;9.49;100.00
50356;BME280;36264;51.296;-0.602;2023-02-20T04:25:56;102338.09;;;9.42;100.00
50356;BME280;36264;51.296;-0.602;2023-02-20T04:28:23;102338.09;;;9.47;100.00
50356;BME280;36264;51.296;-0.602;2023-02-20T04:30:50;102338.94;;;9.54;100.00
50356;BME280;36264;51.296;-0.602;2023-02-20T04:33:16;102345.81;;;9.59;100.00
50356;BME280;36264;51.296;-0.602;2023-02-20T04:35:41;102344.97;;;9.50;100.00
50356;BME280;36264;51.296;-0.602;2023-02-20T04:38:07;102347.56;;;9.48;100.00
50356;BME280;36264;51.296;-0.602;2023-02-20T04:40:33;102338.94;;;9.45;100.00
50356;BME280;36264;51.296;-0.602;2023-02-20T04:42:58;102351.91;;;9.45;100.00
50356;BME280;36264;51.296;-0.602;2023-02-20T04:45:24;102351.91;;;9.46;100.00
50356;BME280;36264;51.296;-0.602;2023-02-20T04:47:49;102354.50;;;9.32;100.00
50356;BME280;36264;51.296;-0.602;2023-02-20T04:50:21;102343.28;;;9.46;100.00
50356;BME280;36264;51.296;-0.602;2023-02-20T04:52:47;102362.28;;;9.38;100.00
50356;BME280;36264;51.296;-0.602;2023-02-20T04:55:13;102360.56;;;9.39;100.00
50356;BME280;36264;51.296;-0.602;2023-02-20T04:57:38;102365.75;;;9.39;100.00
50356;BME280;36264;51.296;-0.602;2023-02-20T05:00:04;102366.63;;;9.42;100.00
50356;BME280;36264;51.296;-0.602;2023-02-20T05:02:32;102370.06;;;9.38;100.00
50356;BME280;36264;51.296;-0.602;2023-02-20T05:04:58;102373.53;;;9.34;100.00
50356;BME280;36264;51.296;-0.602;2023-02-20T05:07:23;102373.53;;;9.39;100.00
50356;BME280;36264;51.296;-0.602;2023-02-20T05:09:48;102376.09;;;9.42;100.00
50356;BME280;36264;51.296;-0.602;2023-02-20T05:12:14;102376.97;;;9.36;100.00
50356;BME280;36264;51.296;-0.602;2023-02-20T05:14:39;102375.25;;;9.34;100.00
50356;BME280;36264;51.296;-0.602;2023-02-20T05:17:04;102369.22;;;9.36;100.00
50356;BME280;36264;51.296;-0.602;2023-02-20T05:19:30;102384.75;;;9.32;100.00
50356;BME280;36264;51.296;-0.602;2023-02-20T05:21:55;102378.72;;;9.28;100.00
50356;BME280;36264;51.296;-0.602;2023-02-20T05:24:42;102376.97;;;9.22;100.00
50356;BME280;36264;51.296;-0.602;2023-02-20T05:27:07;102383.91;;;9.22;100.00
50356;BME280;36264;51.296;-0.602;2023-02-20T05:29:34;102392.53;;;9.18;100.00
50356;BME280;36264;51.296;-0.602;2023-02-20T05:31:59;102377.84;;;9.21;100.00
50356;BME280;36264;51.296;-0.602;2023-02-20T05:34:25;102386.47;;;9.19;100.00
50356;BME280;36264;51.296;-0.602;2023-02-20T05:36:50;102391.69;;;9.27;100.00
50356;BME280;36264;51.296;-0.602;2023-02-20T05:39:16;102389.94;;;9.30;100.00
50356;BME280;36264;51.296;-0.602;2023-02-20T05:41:42;102388.19;;;9.24;100.00
50356;BME280;36264;51.296;-0.602;2023-02-20T05:44:07;102374.38;;;9.25;100.00
50356;BME280;36264;51.296;-0.602;2023-02-20T05:46:38;102376.13;;;9.28;100.00
50356;BME280;36264;51.296;-0.602;2023-02-20T05:49:04;102364.88;;;9.24;100.00
50356;BME280;36264;51.296;-0.602;2023-02-20T05:51:30;102368.34;;;9.27;100.00
50356;BME280;36264;51.296;-0.602;2023-02-20T05:53:56;102374.38;;;9.22;100.00
50356;BME280;36264;51.296;-0.602;2023-02-20T05:56:22;102370.94;;;9.20;100.00
50356;BME280;36264;51.296;-0.602;2023-02-20T05:58:48;102374.38;;;9.15;100.00
50356;BME280;36264;51.296;-0.602;2023-02-20T06:01:22;102370.06;;;9.20;100.00
50356;BME280;36264;51.296;-0.602;2023-02-20T06:03:47;102368.34;;;9.16;100.00
50356;BME280;36264;51.296;-0.602;2023-02-20T06:06:13;102360.56;;;9.20;100.00
50356;BME280;36264;51.296;-0.602;2023-02-20T06:08:39;102357.97;;;9.28;100.00
50356;BME280;36264;51.296;-0.602;2023-02-20T06:11:06;102350.19;;;9.33;100.00
50356;BME280;36264;51.296;-0.602;2023-02-20T06:13:31;102357.97;;;9.36;100.00
50356;BME280;36264;51.296;-0.602;2023-02-20T06:15:56;102346.72;;;9.40;100.00
50356;BME280;36264;51.296;-0.602;2023-02-20T06:18:22;102351.91;;;9.43;100.00
50356;BME280;36264;51.296;-0.602;2023-02-20T06:20:47;102349.31;;;9.41;100.00
50356;BME280;36264;51.296;-0.602;2023-02-20T06:23:12;102351.91;;;9.38;100.00
50356;BME280;36264;51.296;-0.602;2023-02-20T06:25:38;102355.34;;;9.42;100.00
50356;BME280;36264;51.296;-0.602;2023-02-20T06:28:03;102351.91;;;9.37;100.00
50356;BME280;36264;51.296;-0.602;2023-02-20T06:30:29;102359.69;;;9.35;100.00
50356;BME280;36264;51.296;-0.602;2023-02-20T06:32:54;102351.06;;;9.38;100.00
50356;BME280;36264;51.296;-0.602;2023-02-20T06:35:20;102351.06;;;9.38;100.00
50356;BME280;36264;51.296;-0.602;2023-02-20T06:37:45;102351.06;;;9.39;100.00
50356;BME280;36264;51.296;-0.602;2023-02-20T06:40:10;102355.34;;;9.42;100.00
50356;BME280;36264;51.296;-0.602;2023-02-20T06:42:36;102357.09;;;9.40;100.00
50356;BME280;36264;51.296;-0.602;2023-02-20T06:45:01;102344.13;;;9.40;100.00
50356;BME280;36264;51.296;-0.602;2023-02-20T06:47:27;102343.28;;;9.41;100.00
50356;BME280;36264;51.296;-0.602;2023-02-20T06:49:52;102345.88;;;9.41;100.00
50356;BME280;36264;51.296;-0.602;2023-02-20T06:52:17;102353.66;;;9.42;100.00
50356;BME280;36264;51.296;-0.602;2023-02-20T06:54:43;102351.06;;;9.49;100.00
50356;BME280;36264;51.296;-0.602;2023-02-20T06:57:08;102355.34;;;9.48;100.00
50356;BME280;36264;51.296;-0.602;2023-02-20T06:59:34;102355.34;;;9.48;100.00
50356;BME280;36264;51.296;-0.602;2023-02-20T07:02:06;102349.31;;;9.52;100.00
50356;BME280;36264;51.296;-0.602;2023-02-20T07:04:34;102351.06;;;9.55;100.00
50356;BME280;36264;51.296;-0.602;2023-02-20T07:06:59;102344.13;;;9.61;100.00
50356;BME280;36264;51.296;-0.602;2023-02-20T07:09:26;102344.13;;;9.60;100.00
50356;BME280;36264;51.296;-0.602;2023-02-20T07:11:52;102343.22;;;9.59;100.00
50356;BME280;36264;51.296;-0.602;2023-02-20T07:14:17;102335.44;;;9.63;100.00
50356;BME280;36264;51.296;-0.602;2023-02-20T07:16:43;102339.78;;;9.65;100.00
50356;BME280;36264;51.296;-0.602;2023-02-20T07:19:08;102340.63;;;9.69;100.00
50356;BME280;36264;51.296;-0.602;2023-02-20T07:21:33;102341.50;;;9.72;100.00
50356;BME280;36264;51.296;-0.602;2023-02-20T07:23:59;102331.97;;;9.79;100.00
50356;BME280;36264;51.296;-0.602;2023-02-20T07:26:26;102329.38;;;9.84;100.00
50356;BME280;36264;51.296;-0.602;2023-02-20T07:28:53;102336.25;;;9.88;100.00
50356;BME280;36264;51.296;-0.602;2023-02-20T07:31:19;102327.63;;;9.84;100.00
50356;BME280;36264;51.296;-0.602;2023-02-20T07:33:45;102324.19;;;9.88;100.00
50356;BME280;36264;51.296;-0.602;2023-02-20T07:36:12;102322.44;;;9.86;100.00
50356;BME280;36264;51.296;-0.602;2023-02-20T07:38:37;102316.41;;;9.85;100.00
50356;BME280;36264;51.296;-0.602;2023-02-20T07:41:04;102321.56;;;9.91;100.00
50356;BME280;36264;51.296;-0.602;2023-02-20T07:43:29;102314.63;;;9.93;100.00
50356;BME280;36264;51.296;-0.602;2023-02-20T07:45:54;102315.50;;;9.94;100.00
50356;BME280;36264;51.296;-0.602;2023-02-20T07:48:20;102319.81;;;10.01;100.00
50356;BME280;36264;51.296;-0.602;2023-02-20T07:50:45;102312.88;;;10.02;100.00
50356;BME280;36264;51.296;-0.602;2023-02-20T07:53:15;102318.97;;;9.94;100.00
50356;BME280;36264;51.296;-0.602;2023-02-20T07:55:41;102318.06;;;9.98;100.00
50356;BME280;36264;51.296;-0.602;2023-02-20T07:58:07;102321.53;;;9.99;100.00
50356;BME280;36264;51.296;-0.602;2023-02-20T08:00:32;102325.00;;;10.01;100.00
50356;BME280;36264;51.296;-0.602;2023-02-20T08:02:57;102319.81;;;10.01;100.00
50356;BME280;36264;51.296;-0.602;2023-02-20T08:05:24;102334.47;;;10.04;100.00
50356;BME280;36264;51.296;-0.602;2023-02-20T08:07:50;102326.69;;;10.05;100.00
50356;BME280;36264;51.296;-0.602;2023-02-20T08:10:18;102334.47;;;10.13;100.00
50356;BME280;36264;51.296;-0.602;2023-02-20T08:12:43;102338.81;;;10.09;100.00
50356;BME280;36264;51.296;-0.602;2023-02-20T08:15:09;102343.16;;;10.03;100.00
50356;BME280;36264;51.296;-0.602;2023-02-20T08:17:39;102342.25;;;10.14;100.00
50356;BME280;36264;51.296;-0.602;2023-02-20T08:20:05;102346.56;;;10.23;100.00
50356;BME280;36264;51.296;-0.602;2023-02-20T08:22:32;102350.00;;;10.25;100.00
50356;BME280;36264;51.296;-0.602;2023-02-20T08:24:58;102354.31;;;10.28;100.00
50356;BME280;36264;51.296;-0.602;2023-02-20T08:27:24;102363.81;;;10.30;100.00
50356;BME280;36264;51.296;-0.602;2023-02-20T08:29:50;102352.56;;;10.30;100.00
50356;BME280;36264;51.296;-0.602;2023-02-20T08:32:15;102367.31;;;10.28;100.00
50356;BME280;36264;51.296;-0.602;2023-02-20T08:34:40;102369.91;;;10.29;100.00
50356;BME280;36264;51.296;-0.602;2023-02-20T08:37:06;102381.16;;;10.30;100.00
50356;BME280;36264;51.296;-0.602;2023-02-20T08:39:33;102378.56;;;10.35;100.00
50356;BME280;36264;51.296;-0.602;2023-02-20T08:41:59;102388.09;;;10.34;100.00
50356;BME280;36264;51.296;-0.602;2023-02-20T08:44:24;102392.38;;;10.32;100.00
50356;BME280;36264;51.296;-0.602;2023-02-20T08:46:50;102392.41;;;10.35;100.00
50356;BME280;36264;51.296;-0.602;2023-02-20T08:49:17;102393.22;;;10.43;100.00
50356;BME280;36264;51.296;-0.602;2023-02-20T08:51:47;102408.81;;;10.48;100.00
50356;BME280;36264;51.296;-0.602;2023-02-20T08:54:13;102403.59;;;10.48;100.00
50356;BME280;36264;51.296;-0.602;2023-02-20T08:56:40;102397.56;;;10.50;100.00
50356;BME280;36264;51.296;-0.602;2023-02-20T08:59:06;102399.28;;;10.51;100.00
50356;BME280;36264;51.296;-0.602;2023-02-20T09:01:31;102399.31;;;10.44;100.00
50356;BME280;36264;51.296;-0.602;2023-02-20T09:03:57;102392.38;;;10.43;100.00
50356;BME280;36264;51.296;-0.602;2023-02-20T09:06:22;102395.84;;;10.42;100.00
50356;BME280;36264;51.296;-0.602;2023-02-20T09:08:52;102388.06;;;10.36;100.00
50356;BME280;36264;51.296;-0.602;2023-02-20T09:11:18;102374.22;;;10.40;100.00
50356;BME280;36264;51.296;-0.602;2023-02-20T09:13:44;102368.09;;;10.53;100.00
50356;BME280;36264;51.296;-0.602;2023-02-20T09:16:15;102374.16;;;10.55;100.00
50356;BME280;36264;51.296;-0.602;2023-02-20T09:18:40;102375.00;;;10.56;100.00
50356;BME280;36264;51.296;-0.602;2023-02-20T09:21:12;102368.91;;;10.64;100.00
50356;BME280;36264;51.296;-0.602;2023-02-20T09:23:38;102373.19;;;10.68;100.00
50356;BME280;36264;51.296;-0.602;2023-02-20T09:26:03;102376.69;;;10.71;100.00
50356;BME280;36264;51.296;-0.602;2023-02-20T09:28:29;102360.19;;;10.73;100.00
50356;BME280;36264;51.296;-0.602;2023-02-20T09:30:54;102370.56;;;10.76;100.00
50356;BME280;36264;51.296;-0.602;2023-02-20T09:33:22;102363.56;;;10.84;100.00
50356;BME280;36264;51.296;-0.602;2023-02-20T09:35:47;102366.13;;;10.91;100.00
50356;BME280;36264;51.296;-0.602;2023-02-20T09:38:14;102357.44;;;10.99;100.00
50356;BME280;36264;51.296;-0.602;2023-02-20T09:40:40;102366.94;;;11.00;100.00
50356;BME280;36264;51.296;-0.602;2023-02-20T09:48:30;102361.69;;;11.06;100.00
50356;BME280;36264;51.296;-0.602;2023-02-20T09:51:04;102352.22;;;10.99;100.00
50356;BME280;36264;51.296;-0.602;2023-02-20T09:53:56;102353.91;;;11.06;100.00
50356;BME280;36264;51.296;-0.602;2023-02-20T09:56:29;102337.41;;;11.12;100.00
50356;BME280;36264;51.296;-0.602;2023-02-20T09:59:04;102347.75;;;11.20;100.00
50356;BME280;36264;51.296;-0.602;2023-02-20T10:01:32;102352.03;;;11.22;100.00
50356;BME280;36264;51.296;-0.602;2023-02-20T10:04:04;102337.34;;;11.20;100.00
50356;BME280;36264;51.296;-0.602;2023-02-20T10:06:33;102354.59;;;11.29;100.00
50356;BME280;36264;51.296;-0.602;2023-02-20T10:08:59;102346.78;;;11.29;100.00
50356;BME280;36264;51.296;-0.602;2023-02-20T10:14:39;102358.81;;;11.45;100.00
50356;BME280;36264;51.296;-0.602;2023-02-20T10:17:46;102346.63;;;11.49;100.00
50356;BME280;36264;51.296;-0.602;2023-02-20T10:20:11;102350.19;;;11.35;100.00
50356;BME280;36264;51.296;-0.602;2023-02-20T10:22:55;102357.88;;;11.52;100.00
50356;BME280;36264;51.296;-0.602;2023-02-20T10:25:39;102346.53;;;11.59;100.00
50356;BME280;36264;51.296;-0.602;2023-02-20T10:28:16;102346.56;;;11.55;100.00
50356;BME280;36264;51.296;-0.602;2023-02-20T10:33:53;102342.97;;;11.67;100.00
50356;BME280;36264;51.296;-0.602;2023-02-20T10:39:15;102334.31;;;11.68;100.00
50356;BME280;36264;51.296;-0.602;2023-02-20T10:41:46;102336.00;;;11.70;100.00
50356;BME280;36264;51.296;-0.602;2023-02-20T10:44:29;102334.41;;;11.57;100.00
50356;BME280;36264;51.296;-0.602;2023-02-20T10:47:04;102332.59;;;11.64;100.00
50356;BME280;36264;51.296;-0.602;2023-02-20T10:49:58;102347.44;;;11.55;100.00
50356;BME280;36264;51.296;-0.602;2023-02-20T10:52:44;102329.97;;;11.67;100.00
50356;BME280;36264;51.296;-0.602;2023-02-20T10:55:34;102322.97;;;11.72;100.00
50356;BME280;36264;51.296;-0.602;2023-02-20T10:58:08;102322.94;;;11.73;100.00
50356;BME280;36264;51.296;-0.602;2023-02-20T11:00:39;102329.84;;;11.77;100.00
50356;BME280;36264;51.296;-0.602;2023-02-20T11:03:11;102327.13;;;11.88;100.00
50356;BME280;36264;51.296;-0.602;2023-02-20T11:05:44;102304.59;;;11.84;100.00
50356;BME280;36264;51.296;-0.602;2023-02-20T11:08:11;102304.75;;;11.70;100.00
50356;BME280;36264;51.296;-0.602;2023-02-20T11:10:36;102309.00;;;11.81;100.00
50356;BME280;36264;51.296;-0.602;2023-02-20T11:13:03;102306.28;;;11.90;100.00
50356;BME280;36264;51.296;-0.602;2023-02-20T11:15:33;102290.66;;;11.93;100.00
50356;BME280;36264;51.296;-0.602;2023-02-20T11:18:00;102279.31;;;11.97;100.00
50356;BME280;36264;51.296;-0.602;2023-02-20T11:22:58;102272.97;;;12.21;100.00
50356;BME280;36264;51.296;-0.602;2023-02-20T11:25:35;102275.38;;;12.32;100.00
50356;BME280;36264;51.296;-0.602;2023-02-20T11:28:16;102272.72;;;12.37;100.00
50356;BME280;36264;51.296;-0.602;2023-02-20T11:30:43;102291.25;;;12.17;100.00
50356;BME280;36264;51.296;-0.602;2023-02-20T11:33:20;102282.66;;;12.08;100.00
50356;BME280;36264;51.296;-0.602;2023-02-20T11:35:56;102279.88;;;12.21;100.00
50356;BME280;36264;51.296;-0.602;2023-02-20T11:43:26;102260.78;;;12.22;100.00
50356;BME280;36264;51.296;-0.602;2023-02-20T11:49:07;102267.69;;;12.23;100.00
50356;BME280;36264;51.296;-0.602;2023-02-20T11:51:44;102264.13;;;12.30;100.00
50356;BME280;36264;51.296;-0.602;2023-02-20T11:59:41;102275.31;;;12.38;100.00
50356;BME280;36264;51.296;-0.602;2023-02-20T12:04:59;102261.44;;;12.38;100.00
50356;BME280;36264;51.296;-0.602;2023-02-20T12:12:47;102258.56;;;12.56;100.00
50356;BME280;36264;51.296;-0.602;2023-02-20T12:15:19;102249.78;;;12.60;100.00
50356;BME280;36264;51.296;-0.602;2023-02-20T12:20:28;102258.47;;;12.61;100.00
50356;BME280;36264;51.296;-0.602;2023-02-20T12:23:06;102249.09;;;12.49;100.00
50356;BME280;36264;51.296;-0.602;2023-02-20T12:25:39;102248.97;;;12.57;100.00
50356;BME280;36264;51.296;-0.602;2023-02-20T12:47:55;102200.75;;;12.84;100.00
50356;BME280;36264;51.296;-0.602;2023-02-20T12:56:09;102194.31;;;13.03;100.00
50356;BME280;36264;51.296;-0.602;2023-02-20T12:59:02;102198.75;;;12.98;100.00
50356;BME280;36264;51.296;-0.602;2023-02-20T13:01:28;102210.31;;;12.83;100.00
50356;BME280;36264;51.296;-0.602;2023-02-20T13:06:51;102187.69;;;12.85;100.00
50356;BME280;36264;51.296;-0.602;2023-02-20T13:09:51;102186.69;;;12.93;100.00
50356;BME280;36264;51.296;-0.602;2023-02-20T13:12:18;102178.94;;;12.90;100.00
50356;BME280;36264;51.296;-0.602;2023-02-20T13:17:46;102173.59;;;12.97;100.00
50356;BME280;36264;51.296;-0.602;2023-02-20T13:23:02;102165.56;;;13.07;100.00
50356;BME280;36264;51.296;-0.602;2023-02-20T13:25:37;102152.47;;;13.10;100.00
50356;BME280;36264;51.296;-0.602;2023-02-20T13:30:36;102146.38;;;13.11;100.00
50356;BME280;36264;51.296;-0.602;2023-02-20T13:33:17;102138.28;;;13.25;100.00
50356;BME280;36264;51.296;-0.602;2023-02-20T13:35:51;102132.81;;;13.37;100.00
50356;BME280;36264;51.296;-0.602;2023-02-20T13:38:17;102127.50;;;13.41;100.00
50356;BME280;36264;51.296;-0.602;2023-02-20T13:45:47;102124.13;;;13.79;100.00
50356;BME280;36264;51.296;-0.602;2023-02-20T13:53:40;102115.69;;;13.66;100.00
50356;BME280;36264;51.296;-0.602;2023-02-20T13:56:26;102117.16;;;13.77;100.00
50356;BME280;36264;51.296;-0.602;2023-02-20T13:58:57;102104.34;;;13.67;100.00
50356;BME280;36264;51.296;-0.602;2023-02-20T14:01:23;102110.28;;;13.73;100.00
50356;BME280;36264;51.296;-0.602;2023-02-20T14:04:05;102098.75;;;13.84;100.00
50356;BME280;36264;51.296;-0.602;2023-02-20T14:06:30;102086.25;;;13.97;100.00
50356;BME280;36264;51.296;-0.602;2023-02-20T14:09:09;102083.19;;;14.17;100.00
50356;BME280;36264;51.296;-0.602;2023-02-20T14:11:37;102075.84;;;14.31;100.00
50356;BME280;36264;51.296;-0.602;2023-02-20T14:14:08;102077.31;;;14.41;100.00
50356;BME280;36264;51.296;-0.602;2023-02-20T14:16:36;102073.88;;;14.39;100.00
50356;BME280;36264;51.296;-0.602;2023-02-20T14:19:20;102071.16;;;14.44;100.00
50356;BME280;36264;51.296;-0.602;2023-02-20T14:21:47;102082.50;;;14.43;100.00
50356;BME280;36264;51.296;-0.602;2023-02-20T14:24:18;102071.72;;;14.55;100.00
50356;BME280;36264;51.296;-0.602;2023-02-20T14:26:44;102074.34;;;14.55;100.00
50356;BME280;36264;51.296;-0.602;2023-02-20T14:29:31;102064.59;;;14.62;100.00
50356;BME280;36264;51.296;-0.602;2023-02-20T14:31:59;102058.56;;;14.58;100.00
50356;BME280;36264;51.296;-0.602;2023-02-20T14:34:47;102058.56;;;14.60;100.00
50356;BME280;36264;51.296;-0.602;2023-02-20T14:40:21;102050.72;;;14.60;100.00
50356;BME280;36264;51.296;-0.602;2023-02-20T14:42:48;102055.66;;;14.71;100.00